sensor_id;sensor_type;location;lat;lon;timestamp;temperature;humidity
11188;DHT22;5650;52.700;7.306;2023-12-20T00:00:04;8.50;99.90
11188;DHT22;5650;52.700;7.306;2023-12-20T00:02:32;8.50;99.90
11188;DHT22;5650;52.700;7.306;2023-12-20T00:04:59;8.40;99.90
11188;DHT22;5650;52.700;7.306;2023-12-20T00:07:26;8.40;99.90
11188;DHT22;5650;52.700;7.306;2023-12-20T00:09:53;8.40;99.90
11188;DHT22;5650;52.700;7.306;2023-12-20T00:12:21;8.30;99.90
11188;DHT22;5650;52.700;7.306;2023-12-20T00:14:48;8.20;99.90
11188;DHT22;5650;52.700;7.306;2023-12-20T00:17:22;8.30;99.90
11188;DHT22;5650;52.700;7.306;2023-12-20T00:19:49;8.20;99.90
11188;DHT22;5650;52.700;7.306;2023-12-20T00:22:17;8.30;99.90
11188;DHT22;5650;52.700;7.306;2023-12-20T00:24:44;8.30;99.90
11188;DHT22;5650;52.700;7.306;2023-12-20T00:27:13;8.30;99.90
11188;DHT22;5650;52.700;7.306;2023-12-20T00:29:59;8.30;99.90
11188;DHT22;5650;52.700;7.306;2023-12-20T00:32:28;8.30;99.90
11188;DHT22;5650;52.700;7.306;2023-12-20T00:35:04;8.30;99.90
11188;DHT22;5650;52.700;7.306;2023-12-20T00:37:31;8.20;99.90
11188;DHT22;5650;52.700;7.306;2023-12-20T00:39:58;8.20;99.90
11188;DHT22;5650;52.700;7.306;2023-12-20T00:42:26;8.20;99.90
11188;DHT22;5650;52.700;7.306;2023-12-20T00:44:55;8.20;99.90
11188;DHT22;5650;52.700;7.306;2023-12-20T00:47:22;8.20;99.90
11188;DHT22;5650;52.700;7.306;2023-12-20T00:49:53;8.20;99.90
11188;DHT22;5650;52.700;7.306;2023-12-20T00:52:21;8.20;99.90
11188;DHT22;5650;52.700;7.306;2023-12-20T00:54:48;8.20;99.90
11188;DHT22;5650;52.700;7.306;2023-12-20T00:57:16;8.20;99.90
11188;DHT22;5650;52.700;7.306;2023-12-20T00:59:49;8.20;99.90
11188;DHT22;5650;52.700;7.306;2023-12-20T01:02:16;8.10;99.90
11188;DHT22;5650;52.700;7.306;2023-12-20T01:04:43;8.10;99.90
11188;DHT22;5650;52.700;7.306;2023-12-20T01:07:12;8.10;99.90
11188;DHT22;5650;52.700;7.306;2023-12-20T01:09:39;8.10;99.90
11188;DHT22;5650;52.700;7.306;2023-12-20T01:12:06;8.00;99.90
11188;DHT22;5650;52.700;7.306;2023-12-20T01:14:33;8.00;99.90
11188;DHT22;5650;52.700;7.306;2023-12-20T01:17:01;8.00;99.90
11188;DHT22;5650;52.700;7.306;2023-12-20T01:19:28;8.10;99.90
11188;DHT22;5650;52.700;7.306;2023-12-20T01:21:56;8.00;99.90
11188;DHT22;5650;52.700;7.306;2023-12-20T01:24:24;8.10;99.90
11188;DHT22;5650;52.700;7.306;2023-12-20T01:26:58;8.10;99.90
11188;DHT22;5650;52.700;7.306;2023-12-20T01:29:25;8.00;99.90
11188;DHT22;5650;52.700;7.306;2023-12-20T01:31:55;8.00;99.90
11188;DHT22;5650;52.700;7.306;2023-12-20T01:34:22;8.00;99.90
11188;DHT22;5650;52.700;7.306;2023-12-20T01:36:49;7.90;99.90
11188;DHT22;5650;52.700;7.306;2023-12-20T01:39:27;7.90;99.90
11188;DHT22;5650;52.700;7.306;2023-12-20T01:41:54;7.90;99.90
11188;DHT22;5650;52.700;7.306;2023-12-20T01:44:21;7.70;99.90
11188;DHT22;5650;52.700;7.306;2023-12-20T01:46:49;7.80;99.90
11188;DHT22;5650;52.700;7.306;2023-12-20T01:49:16;7.70;99.90
11188;DHT22;5650;52.700;7.306;2023-12-20T01:51:51;7.70;99.90
11188;DHT22;5650;52.700;7.306;2023-12-20T01:54:19;7.70;99.90
11188;DHT22;5650;52.700;7.306;2023-12-20T01:56:49;7.70;99.90
11188;DHT22;5650;52.700;7.306;2023-12-20T01:59:18;7.70;99.90
11188;DHT22;5650;52.700;7.306;2023-12-20T02:01:46;7.70;99.90
11188;DHT22;5650;52.700;7.306;2023-12-20T02:04:13;7.80;99.90
11188;DHT22;5650;52.700;7.306;2023-12-20T02:06:42;7.70;99.90
11188;DHT22;5650;52.700;7.306;2023-12-20T02:09:10;7.90;99.90
11188;DHT22;5650;52.700;7.306;2023-12-20T02:11:43;7.90;99.90
11188;DHT22;5650;52.700;7.306;2023-12-20T02:14:15;7.70;99.90
11188;DHT22;5650;52.700;7.306;2023-12-20T02:16:42;7.70;99.90
11188;DHT22;5650;52.700;7.306;2023-12-20T02:19:14;7.70;99.90
11188;DHT22;5650;52.700;7.306;2023-12-20T02:21:47;7.80;99.90
11188;DHT22;5650;52.700;7.306;2023-12-20T02:24:17;7.70;99.90
11188;DHT22;5650;52.700;7.306;2023-12-20T02:26:44;7.80;99.90
11188;DHT22;5650;52.700;7.306;2023-12-20T02:29:11;7.70;99.90
11188;DHT22;5650;52.700;7.306;2023-12-20T02:31:39;7.70;99.90
11188;DHT22;5650;52.700;7.306;2023-12-20T02:34:16;7.70;99.90
11188;DHT22;5650;52.700;7.306;2023-12-20T02:36:43;7.60;99.90
11188;DHT22;5650;52.700;7.306;2023-12-20T02:39:15;7.60;99.90
11188;DHT22;5650;52.700;7.306;2023-12-20T02:41:42;7.70;99.90
11188;DHT22;5650;52.700;7.306;2023-12-20T02:44:09;7.70;99.90
11188;DHT22;5650;52.700;7.306;2023-12-20T02:46:37;7.80;99.90
11188;DHT22;5650;52.700;7.306;2023-12-20T02:49:04;7.80;99.90
11188;DHT22;5650;52.700;7.306;2023-12-20T02:51:37;7.90;99.90
11188;DHT22;5650;52.700;7.306;2023-12-20T02:54:05;7.90;99.90
11188;DHT22;5650;52.700;7.306;2023-12-20T02:56:33;7.90;99.90
11188;DHT22;5650;52.700;7.306;2023-12-20T02:59:01;8.10;99.90
11188;DHT22;5650;52.700;7.306;2023-12-20T03:01:31;8.30;99.90
11188;DHT22;5650;52.700;7.306;2023-12-20T03:03:58;8.00;99.90
11188;DHT22;5650;52.700;7.306;2023-12-20T03:06:31;7.90;99.90
11188;DHT22;5650;52.700;7.306;2023-12-20T03:08:59;8.00;99.90
11188;DHT22;5650;52.700;7.306;2023-12-20T03:11:26;7.80;99.90
11188;DHT22;5650;52.700;7.306;2023-12-20T03:13:55;7.70;99.90
11188;DHT22;5650;52.700;7.306;2023-12-20T03:16:23;7.70;99.90
11188;DHT22;5650;52.700;7.306;2023-12-20T03:18:54;7.60;99.90
11188;DHT22;5650;52.700;7.306;2023-12-20T03:21:21;7.50;99.90
11188;DHT22;5650;52.700;7.306;2023-12-20T03:23:48;7.50;99.90
11188;DHT22;5650;52.700;7.306;2023-12-20T03:26:15;7.50;99.90
11188;DHT22;5650;52.700;7.306;2023-12-20T03:28:42;7.50;99.90
11188;DHT22;5650;52.700;7.306;2023-12-20T03:31:14;7.50;99.90
11188;DHT22;5650;52.700;7.306;2023-12-20T03:33:41;7.50;99.90
11188;DHT22;5650;52.700;7.306;2023-12-20T03:36:11;7.50;99.90
11188;DHT22;5650;52.700;7.306;2023-12-20T03:38:46;7.50;99.90
11188;DHT22;5650;52.700;7.306;2023-12-20T03:41:14;7.50;99.90
11188;DHT22;5650;52.700;7.306;2023-12-20T03:43:44;7.50;99.90
11188;DHT22;5650;52.700;7.306;2023-12-20T03:46:11;7.60;99.90
11188;DHT22;5650;52.700;7.306;2023-12-20T03:48:57;7.60;99.90
11188;DHT22;5650;52.700;7.306;2023-12-20T03:51:24;7.60;99.90
11188;DHT22;5650;52.700;7.306;2023-12-20T03:53:54;7.60;99.90
11188;DHT22;5650;52.700;7.306;2023-12-20T03:56:28;7.60;99.90
11188;DHT22;5650;52.700;7.306;2023-12-20T03:58:55;7.60;99.90
11188;DHT22;5650;52.700;7.306;2023-12-20T04:01:25;7.50;99.90
11188;DHT22;5650;52.700;7.306;2023-12-20T04:03:54;7.70;99.90
11188;DHT22;5650;52.700;7.306;2023-12-20T04:06:24;7.60;99.90
11188;DHT22;5650;52.700;7.306;2023-12-20T04:08:57;7.50;99.90
11188;DHT22;5650;52.700;7.306;2023-12-20T04:11:24;7.50;99.90
11188;DHT22;5650;52.700;7.306;2023-12-20T04:13:51;7.50;99.90
11188;DHT22;5650;52.700;7.306;2023-12-20T04:16:21;7.50;99.90
11188;DHT22;5650;52.700;7.306;2023-12-20T04:18:54;7.50;99.90
11188;DHT22;5650;52.700;7.306;2023-12-20T04:21:33;7.50;99.90
11188;DHT22;5650;52.700;7.306;2023-12-20T04:24:00;7.60;99.90
11188;DHT22;5650;52.700;7.306;2023-12-20T04:26:31;7.60;99.90
11188;DHT22;5650;52.700;7.306;2023-12-20T04:28:58;7.50;99.90
11188;DHT22;5650;52.700;7.306;2023-12-20T04:31:28;7.60;99.90
11188;DHT22;5650;52.700;7.306;2023-12-20T04:33:55;7.60;99.90
11188;DHT22;5650;52.700;7.306;2023-12-20T04:36:29;7.60;99.90
11188;DHT22;5650;52.700;7.306;2023-12-20T04:38:58;7.60;99.90
11188;DHT22;5650;52.700;7.306;2023-12-20T04:41:28;7.60;99.90
11188;DHT22;5650;52.700;7.306;2023-12-20T04:43:56;7.60;99.90
11188;DHT22;5650;52.700;7.306;2023-12-20T04:46:32;7.60;99.90
11188;DHT22;5650;52.700;7.306;2023-12-20T04:48:59;7.60;99.90
11188;DHT22;5650;52.700;7.306;2023-12-20T04:51:29;7.60;99.90
11188;DHT22;5650;52.700;7.306;2023-12-20T04:54:00;7.70;99.90
11188;DHT22;5650;52.700;7.306;2023-12-20T04:56:30;7.60;99.90
11188;DHT22;5650;52.700;7.306;2023-12-20T04:58:58;7.60;99.90
11188;DHT22;5650;52.700;7.306;2023-12-20T05:01:25;7.60;99.90
11188;DHT22;5650;52.700;7.306;2023-12-20T05:03:54;7.70;99.90
11188;DHT22;5650;52.700;7.306;2023-12-20T05:06:28;7.80;99.90
11188;DHT22;5650;52.700;7.306;2023-12-20T05:08:55;7.80;99.90
11188;DHT22;5650;52.700;7.306;2023-12-20T05:11:26;7.80;99.90
11188;DHT22;5650;52.700;7.306;2023-12-20T05:13:59;7.90;99.90
11188;DHT22;5650;52.700;7.306;2023-12-20T05:16:32;7.80;99.90
11188;DHT22;5650;52.700;7.306;2023-12-20T05:18:59;7.80;99.90
11188;DHT22;5650;52.700;7.306;2023-12-20T05:21:32;7.70;99.90
11188;DHT22;5650;52.700;7.306;2023-12-20T05:23:59;7.80;99.90
11188;DHT22;5650;52.700;7.306;2023-12-20T05:26:28;7.60;99.90
11188;DHT22;5650;52.700;7.306;2023-12-20T05:28:56;7.50;99.90
11188;DHT22;5650;52.700;7.306;2023-12-20T05:31:23;7.70;99.90
11188;DHT22;5650;52.700;7.306;2023-12-20T05:33:50;7.60;99.90
11188;DHT22;5650;52.700;7.306;2023-12-20T05:36:18;7.70;99.90
11188;DHT22;5650;52.700;7.306;2023-12-20T05:38:45;7.70;99.90
11188;DHT22;5650;52.700;7.306;2023-12-20T05:41:13;7.60;99.90
11188;DHT22;5650;52.700;7.306;2023-12-20T05:43:41;7.60;99.90
11188;DHT22;5650;52.700;7.306;2023-12-20T05:46:10;7.70;99.90
11188;DHT22;5650;52.700;7.306;2023-12-20T05:48:38;7.80;99.90
11188;DHT22;5650;52.700;7.306;2023-12-20T05:51:05;7.90;99.90
11188;DHT22;5650;52.700;7.306;2023-12-20T05:53:32;7.80;99.90
11188;DHT22;5650;52.700;7.306;2023-12-20T05:55:59;8.00;99.90
11188;DHT22;5650;52.700;7.306;2023-12-20T05:58:26;8.00;99.90
11188;DHT22;5650;52.700;7.306;2023-12-20T06:00:56;8.10;99.90
11188;DHT22;5650;52.700;7.306;2023-12-20T06:03:23;8.10;99.90
11188;DHT22;5650;52.700;7.306;2023-12-20T06:05:50;8.10;99.90
11188;DHT22;5650;52.700;7.306;2023-12-20T06:08:17;8.10;99.90
11188;DHT22;5650;52.700;7.306;2023-12-20T06:10:45;8.10;99.90
11188;DHT22;5650;52.700;7.306;2023-12-20T06:13:12;8.10;99.90
11188;DHT22;5650;52.700;7.306;2023-12-20T06:15:48;8.10;99.90
11188;DHT22;5650;52.700;7.306;2023-12-20T06:18:17;8.20;99.90
11188;DHT22;5650;52.700;7.306;2023-12-20T06:20:47;8.00;99.90
11188;DHT22;5650;52.700;7.306;2023-12-20T06:23:14;8.20;99.90
11188;DHT22;5650;52.700;7.306;2023-12-20T06:25:44;8.40;99.90
11188;DHT22;5650;52.700;7.306;2023-12-20T06:28:12;8.60;99.90
11188;DHT22;5650;52.700;7.306;2023-12-20T06:30:40;8.30;99.90
11188;DHT22;5650;52.700;7.306;2023-12-20T06:33:10;8.30;99.90
11188;DHT22;5650;52.700;7.306;2023-12-20T06:35:39;8.30;99.90
11188;DHT22;5650;52.700;7.306;2023-12-20T06:38:06;8.30;99.90
11188;DHT22;5650;52.700;7.306;2023-12-20T06:40:40;8.30;99.90
11188;DHT22;5650;52.700;7.306;2023-12-20T06:43:08;8.20;99.90
11188;DHT22;5650;52.700;7.306;2023-12-20T06:45:35;8.20;99.90
11188;DHT22;5650;52.700;7.306;2023-12-20T06:48:03;8.30;99.90
11188;DHT22;5650;52.700;7.306;2023-12-20T06:50:30;8.30;99.90
11188;DHT22;5650;52.700;7.306;2023-12-20T06:53:02;8.30;99.90
11188;DHT22;5650;52.700;7.306;2023-12-20T06:55:32;8.30;99.90
11188;DHT22;5650;52.700;7.306;2023-12-20T06:58:00;8.30;99.90
11188;DHT22;5650;52.700;7.306;2023-12-20T07:00:28;8.30;99.90
11188;DHT22;5650;52.700;7.306;2023-12-20T07:02:55;8.20;99.90
11188;DHT22;5650;52.700;7.306;2023-12-20T07:05:22;8.30;99.90
11188;DHT22;5650;52.700;7.306;2023-12-20T07:07:49;8.20;99.90
11188;DHT22;5650;52.700;7.306;2023-12-20T07:10:18;8.30;99.90
11188;DHT22;5650;52.700;7.306;2023-12-20T07:12:45;8.20;99.90
11188;DHT22;5650;52.700;7.306;2023-12-20T07:15:14;8.40;99.90
11188;DHT22;5650;52.700;7.306;2023-12-20T07:17:41;8.60;99.90
11188;DHT22;5650;52.700;7.306;2023-12-20T07:20:12;8.50;99.90
11188;DHT22;5650;52.700;7.306;2023-12-20T07:22:39;8.50;99.90
11188;DHT22;5650;52.700;7.306;2023-12-20T07:25:07;8.40;99.90
11188;DHT22;5650;52.700;7.306;2023-12-20T07:27:43;8.30;99.90
11188;DHT22;5650;52.700;7.306;2023-12-20T07:30:13;8.20;99.90
11188;DHT22;5650;52.700;7.306;2023-12-20T07:32:44;7.90;99.90
11188;DHT22;5650;52.700;7.306;2023-12-20T07:35:11;7.70;99.90
11188;DHT22;5650;52.700;7.306;2023-12-20T07:37:41;7.50;99.90
11188;DHT22;5650;52.700;7.306;2023-12-20T07:40:11;7.40;99.90
11188;DHT22;5650;52.700;7.306;2023-12-20T07:42:40;7.30;99.90
11188;DHT22;5650;52.700;7.306;2023-12-20T07:45:07;7.20;99.90
11188;DHT22;5650;52.700;7.306;2023-12-20T07:47:42;7.20;99.90
11188;DHT22;5650;52.700;7.306;2023-12-20T07:50:09;7.20;99.90
11188;DHT22;5650;52.700;7.306;2023-12-20T07:52:36;7.20;99.90
11188;DHT22;5650;52.700;7.306;2023-12-20T07:55:04;7.20;99.90
11188;DHT22;5650;52.700;7.306;2023-12-20T07:57:32;7.20;99.90
11188;DHT22;5650;52.700;7.306;2023-12-20T08:00:11;7.10;99.90
11188;DHT22;5650;52.700;7.306;2023-12-20T08:02:41;7.10;99.90
11188;DHT22;5650;52.700;7.306;2023-12-20T08:05:08;7.10;99.90
11188;DHT22;5650;52.700;7.306;2023-12-20T08:07:35;7.10;99.90
11188;DHT22;5650;52.700;7.306;2023-12-20T08:10:03;7.20;99.90
11188;DHT22;5650;52.700;7.306;2023-12-20T08:12:33;7.10;99.90
11188;DHT22;5650;52.700;7.306;2023-12-20T08:15:04;7.10;99.90
11188;DHT22;5650;52.700;7.306;2023-12-20T08:17:32;7.20;99.90
11188;DHT22;5650;52.700;7.306;2023-12-20T08:20:03;7.20;99.90
11188;DHT22;5650;52.700;7.306;2023-12-20T08:22:30;7.20;99.90
11188;DHT22;5650;52.700;7.306;2023-12-20T08:24:58;7.10;99.90
11188;DHT22;5650;52.700;7.306;2023-12-20T08:27:28;7.10;99.90
11188;DHT22;5650;52.700;7.306;2023-12-20T08:30:00;7.20;99.90
11188;DHT22;5650;52.700;7.306;2023-12-20T08:32:34;7.20;99.90
11188;DHT22;5650;52.700;7.306;2023-12-20T08:35:07;7.20;99.90
11188;DHT22;5650;52.700;7.306;2023-12-20T08:37:37;7.20;99.90
11188;DHT22;5650;52.700;7.306;2023-12-20T08:40:05;7.20;99.90
11188;DHT22;5650;52.700;7.306;2023-12-20T08:42:32;7.30;99.90
11188;DHT22;5650;52.700;7.306;2023-12-20T08:44:59;7.20;99.90
11188;DHT22;5650;52.700;7.306;2023-12-20T08:47:27;7.20;99.90
11188;DHT22;5650;52.700;7.306;2023-12-20T08:49:55;7.20;99.90
11188;DHT22;5650;52.700;7.306;2023-12-20T08:52:25;7.30;99.90
11188;DHT22;5650;52.700;7.306;2023-12-20T08:54:53;7.30;99.90
11188;DHT22;5650;52.700;7.306;2023-12-20T08:57:23;7.30;99.90
11188;DHT22;5650;52.700;7.306;2023-12-20T08:59:53;7.30;99.90
11188;DHT22;5650;52.700;7.306;2023-12-20T09:02:20;7.30;99.90
11188;DHT22;5650;52.700;7.306;2023-12-20T09:04:55;7.30;99.90
11188;DHT22;5650;52.700;7.306;2023-12-20T09:07:22;7.40;99.90
11188;DHT22;5650;52.700;7.306;2023-12-20T09:09:50;7.40;99.90
11188;DHT22;5650;52.700;7.306;2023-12-20T09:12:18;7.40;99.90
11188;DHT22;5650;52.700;7.306;2023-12-20T09:14:46;7.50;99.90
11188;DHT22;5650;52.700;7.306;2023-12-20T09:17:13;7.40;99.90
11188;DHT22;5650;52.700;7.306;2023-12-20T09:19:41;7.40;99.90
11188;DHT22;5650;52.700;7.306;2023-12-20T09:22:11;7.50;99.90
11188;DHT22;5650;52.700;7.306;2023-12-20T09:24:44;7.50;99.90
11188;DHT22;5650;52.700;7.306;2023-12-20T09:27:11;7.50;99.90
11188;DHT22;5650;52.700;7.306;2023-12-20T09:29:41;7.50;99.90
11188;DHT22;5650;52.700;7.306;2023-12-20T09:32:08;7.50;99.90
11188;DHT22;5650;52.700;7.306;2023-12-20T09:34:41;7.50;99.90
11188;DHT22;5650;52.700;7.306;2023-12-20T09:37:18;7.60;99.90
11188;DHT22;5650;52.700;7.306;2023-12-20T09:39:45;7.60;99.90
11188;DHT22;5650;52.700;7.306;2023-12-20T09:42:17;7.60;99.90
11188;DHT22;5650;52.700;7.306;2023-12-20T09:44:47;7.70;99.90
11188;DHT22;5650;52.700;7.306;2023-12-20T09:47:15;7.70;99.90
11188;DHT22;5650;52.700;7.306;2023-12-20T09:49:46;7.70;99.90
11188;DHT22;5650;52.700;7.306;2023-12-20T09:52:18;7.70;99.90
11188;DHT22;5650;52.700;7.306;2023-12-20T09:54:48;7.80;99.90
11188;DHT22;5650;52.700;7.306;2023-12-20T09:57:16;7.80;99.90
11188;DHT22;5650;52.700;7.306;2023-12-20T09:59:43;7.90;99.90
11188;DHT22;5650;52.700;7.306;2023-12-20T10:02:13;8.00;99.90
11188;DHT22;5650;52.700;7.306;2023-12-20T10:04:46;8.00;99.90
11188;DHT22;5650;52.700;7.306;2023-12-20T10:07:14;8.10;99.90
11188;DHT22;5650;52.700;7.306;2023-12-20T10:09:47;8.20;99.90
11188;DHT22;5650;52.700;7.306;2023-12-20T10:12:15;8.30;99.90
11188;DHT22;5650;52.700;7.306;2023-12-20T10:14:45;8.30;99.90
11188;DHT22;5650;52.700;7.306;2023-12-20T10:17:12;8.40;99.90
11188;DHT22;5650;52.700;7.306;2023-12-20T10:19:48;8.40;99.90
11188;DHT22;5650;52.700;7.306;2023-12-20T10:22:15;8.40;99.90
11188;DHT22;5650;52.700;7.306;2023-12-20T10:24:47;8.40;99.90
11188;DHT22;5650;52.700;7.306;2023-12-20T10:27:14;8.40;99.90
11188;DHT22;5650;52.700;7.306;2023-12-20T10:29:47;8.40;99.90
11188;DHT22;5650;52.700;7.306;2023-12-20T10:32:22;8.30;99.90
11188;DHT22;5650;52.700;7.306;2023-12-20T10:34:50;7.80;99.90
11188;DHT22;5650;52.700;7.306;2023-12-20T10:37:17;7.40;99.90
11188;DHT22;5650;52.700;7.306;2023-12-20T10:39:52;7.10;99.90
11188;DHT22;5650;52.700;7.306;2023-12-20T10:42:22;7.00;99.90
11188;DHT22;5650;52.700;7.306;2023-12-20T10:44:49;6.90;99.90
11188;DHT22;5650;52.700;7.306;2023-12-20T10:47:19;6.80;99.90
11188;DHT22;5650;52.700;7.306;2023-12-20T10:49:47;6.90;99.90
11188;DHT22;5650;52.700;7.306;2023-12-20T10:52:16;6.90;99.90
11188;DHT22;5650;52.700;7.306;2023-12-20T10:54:44;6.90;99.90
11188;DHT22;5650;52.700;7.306;2023-12-20T10:57:18;7.00;99.90
11188;DHT22;5650;52.700;7.306;2023-12-20T10:59:50;7.10;99.90
11188;DHT22;5650;52.700;7.306;2023-12-20T11:02:19;7.10;99.90
11188;DHT22;5650;52.700;7.306;2023-12-20T11:04:55;7.10;99.90
11188;DHT22;5650;52.700;7.306;2023-12-20T11:07:29;7.10;99.90
11188;DHT22;5650;52.700;7.306;2023-12-20T11:10:02;7.10;99.90
11188;DHT22;5650;52.700;7.306;2023-12-20T11:12:43;7.20;99.90
11188;DHT22;5650;52.700;7.306;2023-12-20T11:15:16;7.20;99.90
11188;DHT22;5650;52.700;7.306;2023-12-20T11:17:54;7.20;99.90
11188;DHT22;5650;52.700;7.306;2023-12-20T11:20:24;7.20;99.90
11188;DHT22;5650;52.700;7.306;2023-12-20T11:23:02;7.20;99.90
11188;DHT22;5650;52.700;7.306;2023-12-20T11:25:29;7.20;99.90
11188;DHT22;5650;52.700;7.306;2023-12-20T11:28:10;7.10;99.90
11188;DHT22;5650;52.700;7.306;2023-12-20T11:30:46;7.10;99.90
11188;DHT22;5650;52.700;7.306;2023-12-20T11:33:16;7.10;99.90
11188;DHT22;5650;52.700;7.306;2023-12-20T11:35:47;7.10;99.90
11188;DHT22;5650;52.700;7.306;2023-12-20T11:38:15;7.10;99.90
11188;DHT22;5650;52.700;7.306;2023-12-20T11:40:42;7.20;99.90
11188;DHT22;5650;52.700;7.306;2023-12-20T11:43:12;7.20;99.90
11188;DHT22;5650;52.700;7.306;2023-12-20T11:45:49;7.30;99.90
11188;DHT22;5650;52.700;7.306;2023-12-20T11:48:17;7.30;99.90
11188;DHT22;5650;52.700;7.306;2023-12-20T11:50:48;7.40;99.90
11188;DHT22;5650;52.700;7.306;2023-12-20T11:53:16;7.40;99.90
11188;DHT22;5650;52.700;7.306;2023-12-20T11:55:48;7.40;99.90
11188;DHT22;5650;52.700;7.306;2023-12-20T11:58:17;7.50;99.90
11188;DHT22;5650;52.700;7.306;2023-12-20T12:00:48;7.50;99.90
11188;DHT22;5650;52.700;7.306;2023-12-20T12:03:18;7.50;99.90
11188;DHT22;5650;52.700;7.306;2023-12-20T12:05:49;7.60;99.90
11188;DHT22;5650;52.700;7.306;2023-12-20T12:08:17;7.60;99.90
11188;DHT22;5650;52.700;7.306;2023-12-20T12:10:49;7.60;99.90
11188;DHT22;5650;52.700;7.306;2023-12-20T12:13:18;7.70;99.90
11188;DHT22;5650;52.700;7.306;2023-12-20T12:15:48;7.70;99.90
11188;DHT22;5650;52.700;7.306;2023-12-20T12:18:18;7.70;99.90
11188;DHT22;5650;52.700;7.306;2023-12-20T12:20:46;7.80;99.90
11188;DHT22;5650;52.700;7.306;2023-12-20T12:23:13;7.70;99.90
11188;DHT22;5650;52.700;7.306;2023-12-20T12:25:40;7.70;99.90
11188;DHT22;5650;52.700;7.306;2023-12-20T12:28:10;7.70;99.90
11188;DHT22;5650;52.700;7.306;2023-12-20T12:30:42;7.70;99.90
11188;DHT22;5650;52.700;7.306;2023-12-20T12:33:13;7.80;99.90
11188;DHT22;5650;52.700;7.306;2023-12-20T12:35:48;7.80;99.90
11188;DHT22;5650;52.700;7.306;2023-12-20T12:38:20;7.80;99.90
11188;DHT22;5650;52.700;7.306;2023-12-20T12:40:51;7.80;99.90
11188;DHT22;5650;52.700;7.306;2023-12-20T12:43:25;7.80;99.90
11188;DHT22;5650;52.700;7.306;2023-12-20T12:45:55;7.80;99.90
11188;DHT22;5650;52.700;7.306;2023-12-20T12:48:22;7.80;99.90
11188;DHT22;5650;52.700;7.306;2023-12-20T12:50:50;7.80;99.90
11188;DHT22;5650;52.700;7.306;2023-12-20T12:53:18;7.80;99.90
11188;DHT22;5650;52.700;7.306;2023-12-20T12:55:48;7.80;99.90
11188;DHT22;5650;52.700;7.306;2023-12-20T12:58:18;7.80;99.90
11188;DHT22;5650;52.700;7.306;2023-12-20T13:00:46;7.80;99.90
11188;DHT22;5650;52.700;7.306;2023-12-20T13:03:14;7.80;99.90
11188;DHT22;5650;52.700;7.306;2023-12-20T13:05:42;7.80;99.90
11188;DHT22;5650;52.700;7.306;2023-12-20T13:08:09;7.70;99.90
11188;DHT22;5650;52.700;7.306;2023-12-20T13:10:43;7.70;99.90
11188;DHT22;5650;52.700;7.306;2023-12-20T13:13:13;7.70;99.90
11188;DHT22;5650;52.700;7.306;2023-12-20T13:15:40;7.70;99.90
11188;DHT22;5650;52.700;7.306;2023-12-20T13:18:07;7.70;99.90
11188;DHT22;5650;52.700;7.306;2023-12-20T13:20:39;7.70;99.90
11188;DHT22;5650;52.700;7.306;2023-12-20T13:23:06;7.70;99.90
11188;DHT22;5650;52.700;7.306;2023-12-20T13:25:33;7.70;99.90
11188;DHT22;5650;52.700;7.306;2023-12-20T13:28:01;7.70;99.90
11188;DHT22;5650;52.700;7.306;2023-12-20T13:30:29;7.70;99.90
11188;DHT22;5650;52.700;7.306;2023-12-20T13:32:59;7.70;99.90
11188;DHT22;5650;52.700;7.306;2023-12-20T13:35:26;7.70;99.90
11188;DHT22;5650;52.700;7.306;2023-12-20T13:37:58;7.70;99.90
11188;DHT22;5650;52.700;7.306;2023-12-20T13:40:32;7.70;99.90
11188;DHT22;5650;52.700;7.306;2023-12-20T13:43:00;7.70;99.90
11188;DHT22;5650;52.700;7.306;2023-12-20T13:45:28;7.60;99.90
11188;DHT22;5650;52.700;7.306;2023-12-20T13:47:56;7.60;99.90
11188;DHT22;5650;52.700;7.306;2023-12-20T13:50:27;7.60;99.90
11188;DHT22;5650;52.700;7.306;2023-12-20T13:52:54;7.50;99.90
11188;DHT22;5650;52.700;7.306;2023-12-20T13:55:26;7.50;99.90
11188;DHT22;5650;52.700;7.306;2023-12-20T13:57:57;7.40;99.90
11188;DHT22;5650;52.700;7.306;2023-12-20T14:00:24;7.40;99.90
11188;DHT22;5650;52.700;7.306;2023-12-20T14:02:51;7.30;99.90
11188;DHT22;5650;52.700;7.306;2023-12-20T14:05:20;7.30;99.90
11188;DHT22;5650;52.700;7.306;2023-12-20T14:07:52;7.30;99.90
11188;DHT22;5650;52.700;7.306;2023-12-20T14:10:19;7.30;99.90
11188;DHT22;5650;52.700;7.306;2023-12-20T14:12:47;7.30;99.90
11188;DHT22;5650;52.700;7.306;2023-12-20T14:15:17;7.30;99.90
11188;DHT22;5650;52.700;7.306;2023-12-20T14:17:44;7.20;99.90
11188;DHT22;5650;52.700;7.306;2023-12-20T14:20:14;7.20;99.90
11188;DHT22;5650;52.700;7.306;2023-12-20T14:22:42;7.10;99.90
11188;DHT22;5650;52.700;7.306;2023-12-20T14:25:11;7.10;99.90
11188;DHT22;5650;52.700;7.306;2023-12-20T14:27:41;7.10;99.90
11188;DHT22;5650;52.700;7.306;2023-12-20T14:30:14;7.10;99.90
11188;DHT22;5650;52.700;7.306;2023-12-20T14:32:45;7.10;99.90
11188;DHT22;5650;52.700;7.306;2023-12-20T14:35:13;7.10;99.90
11188;DHT22;5650;52.700;7.306;2023-12-20T14:37:41;7.10;99.90
11188;DHT22;5650;52.700;7.306;2023-12-20T14:40:09;7.10;99.90
11188;DHT22;5650;52.700;7.306;2023-12-20T14:42:40;7.00;99.90
11188;DHT22;5650;52.700;7.306;2023-12-20T14:45:11;7.00;99.90
11188;DHT22;5650;52.700;7.306;2023-12-20T14:47:40;7.00;99.90
11188;DHT22;5650;52.700;7.306;2023-12-20T14:50:17;7.00;99.90
11188;DHT22;5650;52.700;7.306;2023-12-20T14:52:47;7.00;99.90
11188;DHT22;5650;52.700;7.306;2023-12-20T14:55:14;7.00;99.90
11188;DHT22;5650;52.700;7.306;2023-12-20T14:57:42;7.00;99.90
11188;DHT22;5650;52.700;7.306;2023-12-20T15:00:13;7.00;99.90
11188;DHT22;5650;52.700;7.306;2023-12-20T15:02:43;6.90;99.90
11188;DHT22;5650;52.700;7.306;2023-12-20T15:05:11;6.90;99.90
11188;DHT22;5650;52.700;7.306;2023-12-20T15:07:40;6.90;99.90
11188;DHT22;5650;52.700;7.306;2023-12-20T15:10:16;6.90;99.90
11188;DHT22;5650;52.700;7.306;2023-12-20T15:12:43;6.90;99.90
11188;DHT22;5650;52.700;7.306;2023-12-20T15:15:11;6.90;99.90
11188;DHT22;5650;52.700;7.306;2023-12-20T15:17:39;6.90;99.90
11188;DHT22;5650;52.700;7.306;2023-12-20T15:20:09;6.90;99.90
11188;DHT22;5650;52.700;7.306;2023-12-20T15:22:39;6.90;99.90
11188;DHT22;5650;52.700;7.306;2023-12-20T15:25:07;7.10;99.90
11188;DHT22;5650;52.700;7.306;2023-12-20T15:27:37;7.40;99.90
11188;DHT22;5650;52.700;7.306;2023-12-20T15:30:05;7.70;99.90
11188;DHT22;5650;52.700;7.306;2023-12-20T15:32:43;7.90;99.90
11188;DHT22;5650;52.700;7.306;2023-12-20T15:35:13;8.00;99.90
11188;DHT22;5650;52.700;7.306;2023-12-20T15:37:40;8.10;99.90
11188;DHT22;5650;52.700;7.306;2023-12-20T15:40:13;8.20;99.90
11188;DHT22;5650;52.700;7.306;2023-12-20T15:42:40;8.20;99.90
11188;DHT22;5650;52.700;7.306;2023-12-20T15:45:10;8.20;99.90
11188;DHT22;5650;52.700;7.306;2023-12-20T15:47:40;8.30;99.90
11188;DHT22;5650;52.700;7.306;2023-12-20T15:50:07;8.10;99.90
11188;DHT22;5650;52.700;7.306;2023-12-20T15:52:39;8.10;99.90
11188;DHT22;5650;52.700;7.306;2023-12-20T15:55:16;8.20;99.90
11188;DHT22;5650;52.700;7.306;2023-12-20T15:57:43;8.30;99.90
11188;DHT22;5650;52.700;7.306;2023-12-20T16:00:10;8.30;99.90
11188;DHT22;5650;52.700;7.306;2023-12-20T16:02:38;8.40;99.90
11188;DHT22;5650;52.700;7.306;2023-12-20T16:05:06;8.40;99.90
11188;DHT22;5650;52.700;7.306;2023-12-20T16:07:33;8.40;99.90
11188;DHT22;5650;52.700;7.306;2023-12-20T16:10:07;8.20;99.90
11188;DHT22;5650;52.700;7.306;2023-12-20T16:12:34;8.10;99.90
11188;DHT22;5650;52.700;7.306;2023-12-20T16:15:02;8.10;99.90